Santa Cruz de la Sierra, Bolivia
Current Conditions -  °F | °C
As of 8:00 AM on Wednesday 22 Oct 2014 (Local Time) from SLET Reporting Station
Clear Clear  
Wind Chill: 84°   Ceiling: Unl
Heat Index: 87°   Visibility: 4mi
Dew Point: 68°   Wind: 6mph
Humidity: 58%   Direction: 150°SSE
Pressure: 29.97"   Gusts: NA
Location:  17.79°S, 63.2°W
Report Text: SLET 221200Z 15005KT 7000 NSC 29/20 Q1015
Loading
Personal Weather Stations






























Interactive Weather Map New forecast layout! Learn more

10-Day Weather Forecast

Advertisements
Track Severe Weather on mobile